<?xml version="1.0" encoding="UTF-8"?>
<gpx version="1.0" creator="Trackator" xmlns:xsi="http://www.w3.org/2001/XMLSchema-instance" xmlns="http://www.topografix.com/GPX/1/0" xmlns:topografix="http://www.topografix.com/GPX/Private/TopoGrafix/0/1" xsi:schemaLocation="http://www.topografix.com/GPX/1/0 http://www.topografix.com/GPX/1/0/gpx.xsd http://www.topografix.com/GPX/Private/TopoGrafix/0/1 http://www.topografix.com/GPX/Private/TopoGrafix/0/1/topografix.xsd">
<metadata>
<link href="http://www.trackalia.com/trackatorweb.php">
<text>Trackator</text>
</link>
</metadata>
<time>2017-07-03T18:11:25Z</time>
<trk>
<name>Track: </name>
<desc>Cycling</desc>
<trkseg>
<trkpt lat="50.5894136" lon="16.8112868">
<ele>369</ele>
<time>2017-07-03T18:11:25Z</time>
</trkpt>
<trkpt lat="50.5893197" lon="16.8112598">
<ele>344</ele>
<time>2017-07-03T18:11:27Z</time>
</trkpt>
<trkpt lat="50.5892214" lon="16.8113090">
<ele>349</ele>
<time>2017-07-03T18:11:31Z</time>
</trkpt>
<trkpt lat="50.5892214" lon="16.8113090">
<ele>349</ele>
<time>2017-07-03T18:11:33Z</time>
</trkpt>
<trkpt lat="50.5892214" lon="16.8113090">
<ele>349</ele>
<time>2017-07-03T18:11:35Z</time>
</trkpt>
<trkpt lat="50.5892300" lon="16.8112557">
<ele>342</ele>
<time>2017-07-03T18:11:37Z</time>
</trkpt>
<trkpt lat="50.5892327" lon="16.8112043">
<ele>340</ele>
<time>2017-07-03T18:11:39Z</time>
</trkpt>
<trkpt lat="50.5892351" lon="16.8111858">
<ele>338</ele>
<time>2017-07-03T18:11:41Z</time>
</trkpt>
<trkpt lat="50.5892317" lon="16.8111736">
<ele>338</ele>
<time>2017-07-03T18:11:43Z</time>
</trkpt>
<trkpt lat="50.5892317" lon="16.8111736">
<ele>338</ele>
<time>2017-07-03T18:11:45Z</time>
</trkpt>
<trkpt lat="50.5892317" lon="16.8111736">
<ele>338</ele>
<time>2017-07-03T18:11:47Z</time>
</trkpt>
<trkpt lat="50.5892317" lon="16.8111736">
<ele>338</ele>
<time>2017-07-03T18:11:49Z</time>
</trkpt>
<trkpt lat="50.5892317" lon="16.8111736">
<ele>338</ele>
<time>2017-07-03T18:11:51Z</time>
</trkpt>
<trkpt lat="50.5892317" lon="16.8111736">
<ele>338</ele>
<time>2017-07-03T18:11:53Z</time>
</trkpt>
<trkpt lat="" lon="">
<ele></ele>
<time>2017-07-03TZ</time>
</trkpt>
</trkseg>
</trk>
<wpt lat="" lon="">
	<name></name>
	<desc></desc>
	<cmt></cmt>
	<photoid></photoid>
	<type></type>
</wpt>
</gpx>
